sensor_id;sensor_type;location;lat;lon;timestamp;temperature;humidity
11656;DHT22;5884;43.618;1.438;2022-07-23T04:45:11;20.10;99.90
11656;DHT22;5884;43.618;1.438;2022-07-23T04:47:38;20.10;99.90
11656;DHT22;5884;43.618;1.438;2022-07-23T04:50:05;20.10;99.90
11656;DHT22;5884;43.618;1.438;2022-07-23T04:52:33;20.00;99.90
11656;DHT22;5884;43.618;1.438;2022-07-23T04:55:00;20.00;99.90
11656;DHT22;5884;43.618;1.438;2022-07-23T04:57:27;20.10;99.90
11656;DHT22;5884;43.618;1.438;2022-07-23T04:59:55;20.10;99.90
11656;DHT22;5884;43.618;1.438;2022-07-23T05:02:23;20.10;99.90
11656;DHT22;5884;43.618;1.438;2022-07-23T05:04:50;20.00;99.90
11656;DHT22;5884;43.618;1.438;2022-07-23T05:07:17;20.00;99.90
11656;DHT22;5884;43.618;1.438;2022-07-23T05:09:45;20.10;99.90
11656;DHT22;5884;43.618;1.438;2022-07-23T05:12:12;20.20;99.90
11656;DHT22;5884;43.618;1.438;2022-07-23T05:14:39;20.20;99.90
11656;DHT22;5884;43.618;1.438;2022-07-23T05:17:07;20.20;99.90
11656;DHT22;5884;43.618;1.438;2022-07-23T05:19:36;20.20;99.90
11656;DHT22;5884;43.618;1.438;2022-07-23T05:22:03;20.20;99.90
11656;DHT22;5884;43.618;1.438;2022-07-23T05:24:30;20.20;99.90
11656;DHT22;5884;43.618;1.438;2022-07-23T05:26:57;20.30;99.90
11656;DHT22;5884;43.618;1.438;2022-07-23T05:29:25;20.30;99.90
11656;DHT22;5884;43.618;1.438;2022-07-23T05:31:52;20.30;99.90
11656;DHT22;5884;43.618;1.438;2022-07-23T05:34:19;20.30;99.90
11656;DHT22;5884;43.618;1.438;2022-07-23T05:36:48;20.40;99.90
11656;DHT22;5884;43.618;1.438;2022-07-23T05:39:15;20.30;99.90
11656;DHT22;5884;43.618;1.438;2022-07-23T05:41:42;20.20;99.90
11656;DHT22;5884;43.618;1.438;2022-07-23T05:44:09;20.20;99.90
11656;DHT22;5884;43.618;1.438;2022-07-23T05:46:36;20.30;99.90
11656;DHT22;5884;43.618;1.438;2022-07-23T05:49:04;20.20;99.90
11656;DHT22;5884;43.618;1.438;2022-07-23T05:51:31;20.10;99.90
11656;DHT22;5884;43.618;1.438;2022-07-23T05:54:00;20.00;99.90
11656;DHT22;5884;43.618;1.438;2022-07-23T05:56:27;20.10;99.90
11656;DHT22;5884;43.618;1.438;2022-07-23T05:58:54;20.20;99.90
11656;DHT22;5884;43.618;1.438;2022-07-23T06:01:21;20.00;99.90
11656;DHT22;5884;43.618;1.438;2022-07-23T06:03:48;20.10;99.90
11656;DHT22;5884;43.618;1.438;2022-07-23T06:06:16;20.20;99.90
11656;DHT22;5884;43.618;1.438;2022-07-23T06:08:43;20.20;99.90
11656;DHT22;5884;43.618;1.438;2022-07-23T06:11:11;20.40;99.90
11656;DHT22;5884;43.618;1.438;2022-07-23T06:13:38;20.40;99.90
11656;DHT22;5884;43.618;1.438;2022-07-23T06:16:06;20.30;99.90
11656;DHT22;5884;43.618;1.438;2022-07-23T06:18:34;20.40;99.90
11656;DHT22;5884;43.618;1.438;2022-07-23T06:21:01;20.40;99.90
11656;DHT22;5884;43.618;1.438;2022-07-23T06:23:29;20.40;99.90
11656;DHT22;5884;43.618;1.438;2022-07-23T06:25:56;20.30;99.90
11656;DHT22;5884;43.618;1.438;2022-07-23T06:28:25;20.40;99.90
11656;DHT22;5884;43.618;1.438;2022-07-23T06:30:52;20.30;99.90
11656;DHT22;5884;43.618;1.438;2022-07-23T06:33:19;20.20;99.90
11656;DHT22;5884;43.618;1.438;2022-07-23T06:35:46;20.20;99.90
11656;DHT22;5884;43.618;1.438;2022-07-23T06:38:13;20.30;99.90
11656;DHT22;5884;43.618;1.438;2022-07-23T06:40:41;20.30;99.90
11656;DHT22;5884;43.618;1.438;2022-07-23T06:43:09;20.50;99.90
11656;DHT22;5884;43.618;1.438;2022-07-23T06:45:37;20.70;99.90
11656;DHT22;5884;43.618;1.438;2022-07-23T06:48:05;20.80;99.90
11656;DHT22;5884;43.618;1.438;2022-07-23T06:50:32;20.80;99.90
11656;DHT22;5884;43.618;1.438;2022-07-23T06:53:00;21.10;99.90
11656;DHT22;5884;43.618;1.438;2022-07-23T06:55:27;21.20;99.90
11656;DHT22;5884;43.618;1.438;2022-07-23T06:57:54;21.30;99.90
11656;DHT22;5884;43.618;1.438;2022-07-23T07:00:22;21.30;99.90
11656;DHT22;5884;43.618;1.438;2022-07-23T07:02:54;21.30;99.90
11656;DHT22;5884;43.618;1.438;2022-07-23T07:05:22;21.30;99.90
11656;DHT22;5884;43.618;1.438;2022-07-23T07:07:51;21.30;99.90
11656;DHT22;5884;43.618;1.438;2022-07-23T07:10:18;21.30;99.90
11656;DHT22;5884;43.618;1.438;2022-07-23T07:12:45;21.60;99.90
11656;DHT22;5884;43.618;1.438;2022-07-23T07:15:13;21.50;99.90
11656;DHT22;5884;43.618;1.438;2022-07-23T07:17:40;21.60;99.90
11656;DHT22;5884;43.618;1.438;2022-07-23T07:20:10;21.80;99.90
11656;DHT22;5884;43.618;1.438;2022-07-23T07:22:37;22.00;99.90
11656;DHT22;5884;43.618;1.438;2022-07-23T07:25:05;21.90;99.90
11656;DHT22;5884;43.618;1.438;2022-07-23T07:27:33;22.00;99.90
11656;DHT22;5884;43.618;1.438;2022-07-23T07:30:01;21.90;99.90
11656;DHT22;5884;43.618;1.438;2022-07-23T07:32:28;22.00;99.90
11656;DHT22;5884;43.618;1.438;2022-07-23T07:34:58;21.90;99.90
11656;DHT22;5884;43.618;1.438;2022-07-23T07:37:26;21.80;99.90
11656;DHT22;5884;43.618;1.438;2022-07-23T07:39:54;21.80;99.90
11656;DHT22;5884;43.618;1.438;2022-07-23T07:42:21;21.90;99.90
11656;DHT22;5884;43.618;1.438;2022-07-23T07:44:48;21.80;99.90
11656;DHT22;5884;43.618;1.438;2022-07-23T07:47:15;21.90;99.90
11656;DHT22;5884;43.618;1.438;2022-07-23T07:49:43;21.90;99.90
11656;DHT22;5884;43.618;1.438;2022-07-23T07:52:10;21.90;99.90
11656;DHT22;5884;43.618;1.438;2022-07-23T07:54:39;21.90;99.90
11656;DHT22;5884;43.618;1.438;2022-07-23T07:57:06;22.10;99.90
11656;DHT22;5884;43.618;1.438;2022-07-23T07:59:33;22.30;99.90
11656;DHT22;5884;43.618;1.438;2022-07-23T08:02:01;22.50;99.90
11656;DHT22;5884;43.618;1.438;2022-07-23T08:04:29;22.30;99.90
11656;DHT22;5884;43.618;1.438;2022-07-23T08:06:56;22.20;99.90
11656;DHT22;5884;43.618;1.438;2022-07-23T08:09:23;22.30;99.90
11656;DHT22;5884;43.618;1.438;2022-07-23T08:11:52;22.20;99.90
11656;DHT22;5884;43.618;1.438;2022-07-23T08:14:19;22.20;99.90
11656;DHT22;5884;43.618;1.438;2022-07-23T08:16:46;22.20;99.90
11656;DHT22;5884;43.618;1.438;2022-07-23T08:19:13;22.30;99.90
11656;DHT22;5884;43.618;1.438;2022-07-23T08:21:40;22.40;99.90
11656;DHT22;5884;43.618;1.438;2022-07-23T08:24:08;22.60;99.90
11656;DHT22;5884;43.618;1.438;2022-07-23T08:26:35;22.60;99.90
11656;DHT22;5884;43.618;1.438;2022-07-23T08:29:03;22.60;99.90
11656;DHT22;5884;43.618;1.438;2022-07-23T08:31:31;22.70;99.90
11656;DHT22;5884;43.618;1.438;2022-07-23T08:33:59;22.80;99.90
11656;DHT22;5884;43.618;1.438;2022-07-23T08:36:28;22.70;99.90
11656;DHT22;5884;43.618;1.438;2022-07-23T08:38:57;22.80;99.90
11656;DHT22;5884;43.618;1.438;2022-07-23T08:41:25;22.80;99.90
11656;DHT22;5884;43.618;1.438;2022-07-23T08:43:52;22.90;99.90
11656;DHT22;5884;43.618;1.438;2022-07-23T08:46:22;22.80;99.90
11656;DHT22;5884;43.618;1.438;2022-07-23T08:48:50;22.70;99.90
11656;DHT22;5884;43.618;1.438;2022-07-23T08:51:18;22.80;99.90
11656;DHT22;5884;43.618;1.438;2022-07-23T08:53:45;23.00;99.90
11656;DHT22;5884;43.618;1.438;2022-07-23T08:56:13;22.70;99.90
11656;DHT22;5884;43.618;1.438;2022-07-23T08:58:40;22.90;99.90
11656;DHT22;5884;43.618;1.438;2022-07-23T09:01:08;23.00;99.90
11656;DHT22;5884;43.618;1.438;2022-07-23T09:03:37;23.20;99.90
11656;DHT22;5884;43.618;1.438;2022-07-23T09:06:05;23.20;99.90
11656;DHT22;5884;43.618;1.438;2022-07-23T09:08:37;23.40;99.90
11656;DHT22;5884;43.618;1.438;2022-07-23T09:11:06;23.60;99.90
11656;DHT22;5884;43.618;1.438;2022-07-23T09:13:37;23.80;99.90
11656;DHT22;5884;43.618;1.438;2022-07-23T09:16:09;23.90;99.90
11656;DHT22;5884;43.618;1.438;2022-07-23T09:18:44;24.00;99.90
11656;DHT22;5884;43.618;1.438;2022-07-23T09:21:18;24.30;99.90
11656;DHT22;5884;43.618;1.438;2022-07-23T09:23:49;24.60;99.90
11656;DHT22;5884;43.618;1.438;2022-07-23T09:26:30;24.80;99.90
11656;DHT22;5884;43.618;1.438;2022-07-23T09:29:17;24.80;99.90
11656;DHT22;5884;43.618;1.438;2022-07-23T09:31:48;24.60;99.90
11656;DHT22;5884;43.618;1.438;2022-07-23T09:34:20;24.40;99.90
11656;DHT22;5884;43.618;1.438;2022-07-23T09:36:50;24.60;99.90
11656;DHT22;5884;43.618;1.438;2022-07-23T09:39:25;24.80;99.90
11656;DHT22;5884;43.618;1.438;2022-07-23T09:41:55;24.90;99.90
11656;DHT22;5884;43.618;1.438;2022-07-23T09:44:23;25.00;99.90
11656;DHT22;5884;43.618;1.438;2022-07-23T09:46:51;24.90;99.90
11656;DHT22;5884;43.618;1.438;2022-07-23T09:49:26;25.10;99.90
11656;DHT22;5884;43.618;1.438;2022-07-23T09:51:56;25.10;99.90
11656;DHT22;5884;43.618;1.438;2022-07-23T09:54:30;25.30;99.90
11656;DHT22;5884;43.618;1.438;2022-07-23T09:57:05;25.50;99.90
11656;DHT22;5884;43.618;1.438;2022-07-23T09:59:35;25.40;99.90
11656;DHT22;5884;43.618;1.438;2022-07-23T10:02:05;25.30;99.90
11656;DHT22;5884;43.618;1.438;2022-07-23T10:04:35;25.30;99.90
11656;DHT22;5884;43.618;1.438;2022-07-23T10:07:04;25.10;99.90
11656;DHT22;5884;43.618;1.438;2022-07-23T10:09:33;25.30;99.90
11656;DHT22;5884;43.618;1.438;2022-07-23T10:12:03;25.20;99.90
11656;DHT22;5884;43.618;1.438;2022-07-23T10:14:40;25.30;99.90
11656;DHT22;5884;43.618;1.438;2022-07-23T10:17:08;25.60;99.90
11656;DHT22;5884;43.618;1.438;2022-07-23T10:19:37;25.60;99.90
11656;DHT22;5884;43.618;1.438;2022-07-23T10:22:09;25.80;99.90
11656;DHT22;5884;43.618;1.438;2022-07-23T10:24:45;25.90;99.90
11656;DHT22;5884;43.618;1.438;2022-07-23T10:27:47;25.50;99.90
11656;DHT22;5884;43.618;1.438;2022-07-23T10:30:33;25.00;99.90
11656;DHT22;5884;43.618;1.438;2022-07-23T10:33:27;25.30;99.90
11656;DHT22;5884;43.618;1.438;2022-07-23T10:36:03;25.70;99.90
11656;DHT22;5884;43.618;1.438;2022-07-23T10:38:43;25.90;99.90
11656;DHT22;5884;43.618;1.438;2022-07-23T10:41:15;25.90;99.90
11656;DHT22;5884;43.618;1.438;2022-07-23T10:44:06;25.90;99.90
11656;DHT22;5884;43.618;1.438;2022-07-23T10:46:34;25.90;99.90
11656;DHT22;5884;43.618;1.438;2022-07-23T10:49:24;25.70;99.90
11656;DHT22;5884;43.618;1.438;2022-07-23T10:52:16;26.10;99.90
11656;DHT22;5884;43.618;1.438;2022-07-23T10:54:45;26.20;99.90
11656;DHT22;5884;43.618;1.438;2022-07-23T10:57:15;26.40;99.90
11656;DHT22;5884;43.618;1.438;2022-07-23T11:00:20;26.10;99.90
11656;DHT22;5884;43.618;1.438;2022-07-23T11:02:50;26.00;99.90
11656;DHT22;5884;43.618;1.438;2022-07-23T11:05:18;25.90;99.90
11656;DHT22;5884;43.618;1.438;2022-07-23T11:08:16;26.10;99.90
11656;DHT22;5884;43.618;1.438;2022-07-23T11:10:48;26.40;99.90
11656;DHT22;5884;43.618;1.438;2022-07-23T11:13:40;26.30;99.90
11656;DHT22;5884;43.618;1.438;2022-07-23T11:16:24;26.20;99.90
11656;DHT22;5884;43.618;1.438;2022-07-23T11:19:02;26.30;99.90
11656;DHT22;5884;43.618;1.438;2022-07-23T11:21:50;26.20;99.90
11656;DHT22;5884;43.618;1.438;2022-07-23T11:24:21;26.80;99.90
11656;DHT22;5884;43.618;1.438;2022-07-23T11:26:53;27.30;99.90
11656;DHT22;5884;43.618;1.438;2022-07-23T11:29:44;27.50;99.90
11656;DHT22;5884;43.618;1.438;2022-07-23T11:32:34;27.10;99.90
11656;DHT22;5884;43.618;1.438;2022-07-23T11:35:21;27.00;99.90
11656;DHT22;5884;43.618;1.438;2022-07-23T11:37:51;26.80;99.90
11656;DHT22;5884;43.618;1.438;2022-07-23T11:40:25;26.50;99.90
11656;DHT22;5884;43.618;1.438;2022-07-23T11:42:56;26.60;99.90
11656;DHT22;5884;43.618;1.438;2022-07-23T11:45:25;26.70;99.90
11656;DHT22;5884;43.618;1.438;2022-07-23T11:47:56;26.70;99.90
11656;DHT22;5884;43.618;1.438;2022-07-23T11:50:24;26.60;99.90
11656;DHT22;5884;43.618;1.438;2022-07-23T11:52:52;26.40;99.90
11656;DHT22;5884;43.618;1.438;2022-07-23T11:55:19;26.20;99.90
11656;DHT22;5884;43.618;1.438;2022-07-23T11:57:51;26.50;99.90
11656;DHT22;5884;43.618;1.438;2022-07-23T12:00:21;26.50;99.90
11656;DHT22;5884;43.618;1.438;2022-07-23T12:02:51;26.70;99.90
11656;DHT22;5884;43.618;1.438;2022-07-23T12:05:20;26.50;99.90
11656;DHT22;5884;43.618;1.438;2022-07-23T12:07:51;26.20;99.90
11656;DHT22;5884;43.618;1.438;2022-07-23T12:10:20;26.50;99.90
11656;DHT22;5884;43.618;1.438;2022-07-23T12:12:52;26.90;99.90
11656;DHT22;5884;43.618;1.438;2022-07-23T12:15:23;26.70;99.90
11656;DHT22;5884;43.618;1.438;2022-07-23T12:17:52;26.60;99.90
11656;DHT22;5884;43.618;1.438;2022-07-23T12:20:22;26.80;99.90
11656;DHT22;5884;43.618;1.438;2022-07-23T12:22:52;27.00;99.90
11656;DHT22;5884;43.618;1.438;2022-07-23T12:25:21;27.20;99.90
11656;DHT22;5884;43.618;1.438;2022-07-23T12:28:01;27.30;99.90
11656;DHT22;5884;43.618;1.438;2022-07-23T12:30:34;27.10;99.90
11656;DHT22;5884;43.618;1.438;2022-07-23T12:33:04;27.10;99.90
11656;DHT22;5884;43.618;1.438;2022-07-23T12:35:35;27.40;99.90
11656;DHT22;5884;43.618;1.438;2022-07-23T12:38:07;27.60;99.90
11656;DHT22;5884;43.618;1.438;2022-07-23T12:40:37;27.20;99.90
11656;DHT22;5884;43.618;1.438;2022-07-23T12:43:19;27.30;99.90
11656;DHT22;5884;43.618;1.438;2022-07-23T12:45:49;27.50;99.90
11656;DHT22;5884;43.618;1.438;2022-07-23T12:48:19;27.70;99.90
11656;DHT22;5884;43.618;1.438;2022-07-23T12:51:06;27.60;99.90
11656;DHT22;5884;43.618;1.438;2022-07-23T12:53:40;27.60;99.90
11656;DHT22;5884;43.618;1.438;2022-07-23T12:56:10;27.60;99.90
11656;DHT22;5884;43.618;1.438;2022-07-23T12:58:45;27.40;99.90
11656;DHT22;5884;43.618;1.438;2022-07-23T13:01:25;27.30;99.90
11656;DHT22;5884;43.618;1.438;2022-07-23T13:03:58;27.20;99.90
11656;DHT22;5884;43.618;1.438;2022-07-23T13:06:28;27.40;99.90
11656;DHT22;5884;43.618;1.438;2022-07-23T13:08:56;27.30;99.90
11656;DHT22;5884;43.618;1.438;2022-07-23T13:11:23;27.30;99.90
11656;DHT22;5884;43.618;1.438;2022-07-23T13:13:52;27.60;99.90
11656;DHT22;5884;43.618;1.438;2022-07-23T13:16:19;27.60;99.90
11656;DHT22;5884;43.618;1.438;2022-07-23T13:18:46;27.50;99.90
11656;DHT22;5884;43.618;1.438;2022-07-23T13:21:14;27.50;99.90
11656;DHT22;5884;43.618;1.438;2022-07-23T13:23:42;27.50;99.90
11656;DHT22;5884;43.618;1.438;2022-07-23T13:26:09;27.50;99.90
11656;DHT22;5884;43.618;1.438;2022-07-23T13:28:37;27.70;99.90
11656;DHT22;5884;43.618;1.438;2022-07-23T13:31:05;27.50;99.90
11656;DHT22;5884;43.618;1.438;2022-07-23T13:33:33;27.40;99.90
11656;DHT22;5884;43.618;1.438;2022-07-23T13:36:01;27.60;99.90
11656;DHT22;5884;43.618;1.438;2022-07-23T13:38:29;27.50;99.90
11656;DHT22;5884;43.618;1.438;2022-07-23T13:40:56;27.90;99.90
11656;DHT22;5884;43.618;1.438;2022-07-23T13:43:24;28.10;99.90
11656;DHT22;5884;43.618;1.438;2022-07-23T13:45:52;28.00;99.90
11656;DHT22;5884;43.618;1.438;2022-07-23T13:48:21;27.90;99.90
11656;DHT22;5884;43.618;1.438;2022-07-23T13:50:50;27.70;99.90
11656;DHT22;5884;43.618;1.438;2022-07-23T13:53:19;27.80;99.90
11656;DHT22;5884;43.618;1.438;2022-07-23T13:55:48;27.90;99.90
11656;DHT22;5884;43.618;1.438;2022-07-23T13:58:16;28.40;99.90
11656;DHT22;5884;43.618;1.438;2022-07-23T14:00:48;28.40;99.90
11656;DHT22;5884;43.618;1.438;2022-07-23T14:03:18;28.30;99.90
11656;DHT22;5884;43.618;1.438;2022-07-23T14:05:51;28.20;99.90
11656;DHT22;5884;43.618;1.438;2022-07-23T14:08:19;28.30;99.90
11656;DHT22;5884;43.618;1.438;2022-07-23T14:10:46;28.00;99.90
11656;DHT22;5884;43.618;1.438;2022-07-23T14:13:13;27.90;99.90
11656;DHT22;5884;43.618;1.438;2022-07-23T14:15:40;28.40;99.90
11656;DHT22;5884;43.618;1.438;2022-07-23T14:18:07;28.50;99.90
11656;DHT22;5884;43.618;1.438;2022-07-23T14:20:35;28.40;99.90
11656;DHT22;5884;43.618;1.438;2022-07-23T14:23:03;28.50;99.90
11656;DHT22;5884;43.618;1.438;2022-07-23T14:25:31;28.60;99.90
11656;DHT22;5884;43.618;1.438;2022-07-23T14:27:58;28.60;99.90
11656;DHT22;5884;43.618;1.438;2022-07-23T14:30:25;28.50;99.90
11656;DHT22;5884;43.618;1.438;2022-07-23T14:32:52;28.60;99.90
11656;DHT22;5884;43.618;1.438;2022-07-23T14:35:19;28.60;99.90
11656;DHT22;5884;43.618;1.438;2022-07-23T14:37:47;28.50;99.90
11656;DHT22;5884;43.618;1.438;2022-07-23T14:40:16;28.60;99.90
11656;DHT22;5884;43.618;1.438;2022-07-23T14:42:43;28.80;99.90
11656;DHT22;5884;43.618;1.438;2022-07-23T14:45:11;28.70;99.90
11656;DHT22;5884;43.618;1.438;2022-07-23T14:47:38;28.90;99.90
11656;DHT22;5884;43.618;1.438;2022-07-23T14:50:06;29.10;99.90
11656;DHT22;5884;43.618;1.438;2022-07-23T14:52:34;28.70;99.90
11656;DHT22;5884;43.618;1.438;2022-07-23T14:55:01;28.50;99.90
11656;DHT22;5884;43.618;1.438;2022-07-23T14:57:30;28.60;99.90
11656;DHT22;5884;43.618;1.438;2022-07-23T14:59:57;28.90;99.90
11656;DHT22;5884;43.618;1.438;2022-07-23T15:02:24;29.00;99.90
11656;DHT22;5884;43.618;1.438;2022-07-23T15:04:52;29.30;99.90
11656;DHT22;5884;43.618;1.438;2022-07-23T15:07:19;29.30;99.90
11656;DHT22;5884;43.618;1.438;2022-07-23T15:09:46;29.30;99.90
11656;DHT22;5884;43.618;1.438;2022-07-23T15:12:13;29.20;99.90
11656;DHT22;5884;43.618;1.438;2022-07-23T15:14:42;29.00;99.90
11656;DHT22;5884;43.618;1.438;2022-07-23T15:17:10;29.00;99.90
11656;DHT22;5884;43.618;1.438;2022-07-23T15:19:37;28.90;99.90
11656;DHT22;5884;43.618;1.438;2022-07-23T15:22:04;29.00;99.90
11656;DHT22;5884;43.618;1.438;2022-07-23T15:24:31;29.00;99.90
11656;DHT22;5884;43.618;1.438;2022-07-23T15:26:59;28.90;99.90
11656;DHT22;5884;43.618;1.438;2022-07-23T15:29:26;28.90;99.90
11656;DHT22;5884;43.618;1.438;2022-07-23T15:31:55;28.90;99.90
11656;DHT22;5884;43.618;1.438;2022-07-23T15:34:22;28.90;99.90
11656;DHT22;5884;43.618;1.438;2022-07-23T15:36:49;28.80;99.90
11656;DHT22;5884;43.618;1.438;2022-07-23T15:39:16;29.00;99.90
11656;DHT22;5884;43.618;1.438;2022-07-23T15:41:43;29.10;99.90
11656;DHT22;5884;43.618;1.438;2022-07-23T15:44:11;29.30;99.90
11656;DHT22;5884;43.618;1.438;2022-07-23T15:46:38;29.20;99.90
11656;DHT22;5884;43.618;1.438;2022-07-23T15:49:06;29.20;99.90
11656;DHT22;5884;43.618;1.438;2022-07-23T15:51:34;29.10;99.90
11656;DHT22;5884;43.618;1.438;2022-07-23T15:54:01;29.00;99.90
11656;DHT22;5884;43.618;1.438;2022-07-23T15:56:28;29.00;99.90
11656;DHT22;5884;43.618;1.438;2022-07-23T15:58:56;28.90;99.90
11656;DHT22;5884;43.618;1.438;2022-07-23T16:01:23;28.80;99.90
11656;DHT22;5884;43.618;1.438;2022-07-23T16:03:50;28.90;99.90
11656;DHT22;5884;43.618;1.438;2022-07-23T16:06:19;29.00;99.90
11656;DHT22;5884;43.618;1.438;2022-07-23T16:08:46;29.20;99.90
11656;DHT22;5884;43.618;1.438;2022-07-23T16:11:14;29.10;99.90
11656;DHT22;5884;43.618;1.438;2022-07-23T16:13:41;29.10;99.90
11656;DHT22;5884;43.618;1.438;2022-07-23T16:16:09;29.10;99.90
11656;DHT22;5884;43.618;1.438;2022-07-23T16:18:37;29.00;99.90
11656;DHT22;5884;43.618;1.438;2022-07-23T16:21:04;29.00;99.90
11656;DHT22;5884;43.618;1.438;2022-07-23T16:23:33;29.10;99.90
11656;DHT22;5884;43.618;1.438;2022-07-23T16:26:00;29.20;99.90
11656;DHT22;5884;43.618;1.438;2022-07-23T16:28:27;29.20;99.90
11656;DHT22;5884;43.618;1.438;2022-07-23T16:30:55;29.00;99.90
11656;DHT22;5884;43.618;1.438;2022-07-23T16:33:23;28.90;99.90
11656;DHT22;5884;43.618;1.438;2022-07-23T16:35:50;28.80;99.90
11656;DHT22;5884;43.618;1.438;2022-07-23T16:38:17;28.80;99.90
11656;DHT22;5884;43.618;1.438;2022-07-23T16:40:46;28.80;99.90
11656;DHT22;5884;43.618;1.438;2022-07-23T16:43:14;28.90;99.90
11656;DHT22;5884;43.618;1.438;2022-07-23T16:45:42;28.90;99.90
11656;DHT22;5884;43.618;1.438;2022-07-23T16:48:10;28.90;99.90
11656;DHT22;5884;43.618;1.438;2022-07-23T16:50:37;28.80;99.90
11656;DHT22;5884;43.618;1.438;2022-07-23T16:53:04;28.80;99.90
11656;DHT22;5884;43.618;1.438;2022-07-23T16:55:32;28.80;99.90
11656;DHT22;5884;43.618;1.438;2022-07-23T16:58:00;28.90;99.90
11656;DHT22;5884;43.618;1.438;2022-07-23T17:00:28;28.80;99.90
11656;DHT22;5884;43.618;1.438;2022-07-23T17:02:55;28.90;99.90
11656;DHT22;5884;43.618;1.438;2022-07-23T17:05:22;28.80;99.90
11656;DHT22;5884;43.618;1.438;2022-07-23T17:07:50;28.90;99.90
11656;DHT22;5884;43.618;1.438;2022-07-23T17:10:19;29.00;99.90
11656;DHT22;5884;43.618;1.438;2022-07-23T17:12:48;29.00;99.90
11656;DHT22;5884;43.618;1.438;2022-07-23T17:15:18;28.90;99.90
11656;DHT22;5884;43.618;1.438;2022-07-23T17:17:45;28.80;99.90
11656;DHT22;5884;43.618;1.438;2022-07-23T17:20:13;28.80;99.90
11656;DHT22;5884;43.618;1.438;2022-07-23T17:22:40;28.90;99.90
11656;DHT22;5884;43.618;1.438;2022-07-23T17:25:08;28.90;99.90
11656;DHT22;5884;43.618;1.438;2022-07-23T17:27:39;28.90;99.90
11656;DHT22;5884;43.618;1.438;2022-07-23T17:30:07;28.80;99.90
11656;DHT22;5884;43.618;1.438;2022-07-23T17:32:36;28.70;99.90
11656;DHT22;5884;43.618;1.438;2022-07-23T17:35:05;28.70;99.90
11656;DHT22;5884;43.618;1.438;2022-07-23T17:37:32;28.80;99.90
11656;DHT22;5884;43.618;1.438;2022-07-23T17:40:00;28.80;99.90
11656;DHT22;5884;43.618;1.438;2022-07-23T17:42:27;28.80;99.90
11656;DHT22;5884;43.618;1.438;2022-07-23T17:44:55;28.70;99.90
11656;DHT22;5884;43.618;1.438;2022-07-23T17:47:22;28.60;99.90
11656;DHT22;5884;43.618;1.438;2022-07-23T17:49:50;28.60;99.90
11656;DHT22;5884;43.618;1.438;2022-07-23T17:52:18;28.60;99.90
11656;DHT22;5884;43.618;1.438;2022-07-23T17:54:45;28.60;99.90
11656;DHT22;5884;43.618;1.438;2022-07-23T17:57:12;28.70;99.90
11656;DHT22;5884;43.618;1.438;2022-07-23T17:59:39;28.70;99.90
11656;DHT22;5884;43.618;1.438;2022-07-23T18:02:07;28.60;99.90
11656;DHT22;5884;43.618;1.438;2022-07-23T18:04:34;28.60;99.90
11656;DHT22;5884;43.618;1.438;2022-07-23T18:07:03;28.50;99.90
11656;DHT22;5884;43.618;1.438;2022-07-23T18:09:30;28.40;99.90
11656;DHT22;5884;43.618;1.438;2022-07-23T18:11:57;28.40;99.90
11656;DHT22;5884;43.618;1.438;2022-07-23T18:14:24;28.30;99.90
11656;DHT22;5884;43.618;1.438;2022-07-23T18:16:51;28.30;99.90
11656;DHT22;5884;43.618;1.438;2022-07-23T18:19:18;28.20;99.90
11656;DHT22;5884;43.618;1.438;2022-07-23T18:21:46;28.20;99.90
11656;DHT22;5884;43.618;1.438;2022-07-23T18:24:14;28.00;99.90
11656;DHT22;5884;43.618;1.438;2022-07-23T18:26:42;28.10;99.90
11656;DHT22;5884;43.618;1.438;2022-07-23T18:29:09;28.00;99.90
11656;DHT22;5884;43.618;1.438;2022-07-23T18:31:36;28.00;99.90
11656;DHT22;5884;43.618;1.438;2022-07-23T18:34:04;27.90;99.90
11656;DHT22;5884;43.618;1.438;2022-07-23T18:36:32;28.00;99.90
11656;DHT22;5884;43.618;1.438;2022-07-23T18:38:59;27.90;99.90
11656;DHT22;5884;43.618;1.438;2022-07-23T18:41:28;27.90;99.90
11656;DHT22;5884;43.618;1.438;2022-07-23T18:43:55;27.90;99.90
11656;DHT22;5884;43.618;1.438;2022-07-23T18:46:22;27.80;99.90
11656;DHT22;5884;43.618;1.438;2022-07-23T18:48:50;27.70;99.90
11656;DHT22;5884;43.618;1.438;2022-07-23T18:51:17;27.70;99.90
11656;DHT22;5884;43.618;1.438;2022-07-23T18:53:44;27.60;99.90
11656;DHT22;5884;43.618;1.438;2022-07-23T18:56:11;27.50;99.90
11656;DHT22;5884;43.618;1.438;2022-07-23T18:58:40;27.50;99.90
11656;DHT22;5884;43.618;1.438;2022-07-23T19:01:07;27.40;99.90
11656;DHT22;5884;43.618;1.438;2022-07-23T19:03:37;27.30;99.90
11656;DHT22;5884;43.618;1.438;2022-07-23T19:06:04;27.20;99.90
11656;DHT22;5884;43.618;1.438;2022-07-23T19:08:32;27.20;99.90
11656;DHT22;5884;43.618;1.438;2022-07-23T19:11:00;27.10;99.90
11656;DHT22;5884;43.618;1.438;2022-07-23T19:13:27;27.00;99.90
11656;DHT22;5884;43.618;1.438;2022-07-23T19:15:56;27.00;99.90
11656;DHT22;5884;43.618;1.438;2022-07-23T19:18:26;27.00;99.90
11656;DHT22;5884;43.618;1.438;2022-07-23T19:20:54;26.90;99.90
11656;DHT22;5884;43.618;1.438;2022-07-23T19:23:21;26.80;99.90
11656;DHT22;5884;43.618;1.438;2022-07-23T19:25:48;26.70;99.90
11656;DHT22;5884;43.618;1.438;2022-07-23T19:28:15;26.60;99.90
11656;DHT22;5884;43.618;1.438;2022-07-23T19:30:43;26.60;99.90
11656;DHT22;5884;43.618;1.438;2022-07-23T19:33:11;26.60;99.90
11656;DHT22;5884;43.618;1.438;2022-07-23T19:35:39;26.60;99.90
11656;DHT22;5884;43.618;1.438;2022-07-23T19:38:06;26.50;99.90
11656;DHT22;5884;43.618;1.438;2022-07-23T19:40:33;26.50;99.90
11656;DHT22;5884;43.618;1.438;2022-07-23T19:43:00;26.50;99.90
11656;DHT22;5884;43.618;1.438;2022-07-23T19:45:27;26.40;99.90
11656;DHT22;5884;43.618;1.438;2022-07-23T19:47:55;26.40;99.90
11656;DHT22;5884;43.618;1.438;2022-07-23T19:50:24;26.40;99.90
11656;DHT22;5884;43.618;1.438;2022-07-23T19:52:54;26.30;99.90
11656;DHT22;5884;43.618;1.438;2022-07-23T19:55:22;26.20;99.90
11656;DHT22;5884;43.618;1.438;2022-07-23T19:57:50;26.20;99.90
11656;DHT22;5884;43.618;1.438;2022-07-23T20:00:18;26.10;99.90
11656;DHT22;5884;43.618;1.438;2022-07-23T20:02:46;26.10;99.90
11656;DHT22;5884;43.618;1.438;2022-07-23T20:05:13;26.00;99.90
11656;DHT22;5884;43.618;1.438;2022-07-23T20:07:42;26.00;99.90
11656;DHT22;5884;43.618;1.438;2022-07-23T20:10:10;25.90;99.90
11656;DHT22;5884;43.618;1.438;2022-07-23T20:12:37;25.90;99.90
11656;DHT22;5884;43.618;1.438;2022-07-23T20:15:06;25.80;99.90
11656;DHT22;5884;43.618;1.438;2022-07-23T20:17:35;25.80;99.90
11656;DHT22;5884;43.618;1.438;2022-07-23T20:20:03;25.70;99.90
11656;DHT22;5884;43.618;1.438;2022-07-23T20:22:31;25.70;99.90
11656;DHT22;5884;43.618;1.438;2022-07-23T20:24:59;25.70;99.90
11656;DHT22;5884;43.618;1.438;2022-07-23T20:27:27;25.70;99.90
11656;DHT22;5884;43.618;1.438;2022-07-23T20:29:54;25.70;99.90
11656;DHT22;5884;43.618;1.438;2022-07-23T20:32:21;25.70;99.90
11656;DHT22;5884;43.618;1.438;2022-07-23T20:34:48;25.70;99.90
11656;DHT22;5884;43.618;1.438;2022-07-23T20:37:16;25.60;99.90
11656;DHT22;5884;43.618;1.438;2022-07-23T20:39:43;25.50;99.90
11656;DHT22;5884;43.618;1.438;2022-07-23T20:42:12;25.50;99.90